Cuneyt Solakoglu — TCTN4 — position and weather

sailwx.info

Track history (hours):
 
Tides and Currents Weather Stations Pressure Air Temp Water Temp Dewpoint Dewpoint Depression Visibility Wind Speed Wind Dir Waves Ship Positions

Cuneyt Solakoglu

Last reported at 2017-Feb-28 14:34 UTC. Time now 2017-Feb-28 14:46 UTC.
Position N 45°33' E 013°20'.

Length 193 m; draft 6.8 m.

Type: Ship (hazmat cat A). MMSI: 271002676.

Date/timePositionNaut miles runAvg speedWind from/ knotsBaromVisibWave heightAir tempDewpointWater temp
2017-Feb-28 14:34N 45°33' E 013°20'1717.4
2017-Feb-28 13:33N 45°39' E 013°44'1 0.9
2017-Feb-28 12:31N 45°39' E 013°45'0 0.0
2017-Feb-28 11:28N 45°39' E 013°45'0 0.0
2017-Feb-28 10:33N 45°39' E 013°45'0 0.0
2017-Feb-28 09:33N 45°39' E 013°45'0 0.0
2017-Feb-28 08:32N 45°39' E 013°45'0 0.0
2017-Feb-28 07:32N 45°39' E 013°45'0 0.0
2017-Feb-28 06:32N 45°39' E 013°45'0 0.0
2017-Feb-28 05:31N 45°39' E 013°45'0 0.0
2017-Feb-28 04:31N 45°39' E 013°45'0 0.0
2017-Feb-28 03:33N 45°39' E 013°45'0 0.0
2017-Feb-28 02:33N 45°39' E 013°45'0 0.0
2017-Feb-28 01:32N 45°39' E 013°45'0 0.0
2017-Feb-28 00:32N 45°39' E 013°45'0 0.0
2017-Feb-27 23:28N 45°39' E 013°45'0 0.0
2017-Feb-27 22:28N 45°39' E 013°45'0 0.0
2017-Feb-27 21:28N 45°39' E 013°45'0 0.0
2017-Feb-27 20:33N 45°39' E 013°45'0 0.0
2017-Feb-27 19:33N 45°39' E 013°45'4 4.1
2017-Feb-27 18:34N 45°39' E 013°39'1918.8
2017-Feb-27 17:33N 45°27' E 013°18'1817.9
2017-Feb-27 16:33N 45°09' E 013°18'1919.3
2017-Feb-27 15:33N 44°51' E 013°29'2019.4
2017-Feb-27 14:33N 44°35' E 013°44'2019.3
2017-Feb-27 13:30N 44°18' E 013°59'  
2017-Feb-22 18:28N 37°07' E 023°57'1820.0
2017-Feb-22 17:34N 36°53' E 023°44'60018.1
2017-Feb-21 08:23N 43°51' E 014°20'1719.8
2017-Feb-21 07:32N 44°05' E 014°05'1919.7
2017-Feb-21 06:33N 44°21' E 013°50'2019.6
2017-Feb-21 05:34N 44°37' E 013°35'2019.5
2017-Feb-21 04:34N 44°53' E 013°21'1919.3
2017-Feb-21 03:34N 45°10' E 013°06'1717.2
2017-Feb-21 02:33N 45°27' E 013°10'1918.8
2017-Feb-21 01:33N 45°37' E 013°33'9 7.3
2017-Feb-21 00:21N 45°39' E 013°45'0 0.0
2017-Feb-20 23:33N 45°39' E 013°45'0 0.0
2017-Feb-20 22:33N 45°39' E 013°45'0 0.0
2017-Feb-20 21:32N 45°39' E 013°45'0 0.0
2017-Feb-20 20:23N 45°39' E 013°45'0 0.0
2017-Feb-20 19:31N 45°39' E 013°45'0 0.0
2017-Feb-20 18:28N 45°39' E 013°45'5 5.6
2017-Feb-20 17:33N 45°38' E 013°38'1818.4
2017-Feb-20 16:33N 45°26' E 013°18'1717.5
2017-Feb-20 15:33N 45°09' E 013°18'1918.8
2017-Feb-20 14:33N 44°52' E 013°29'1918.8
2017-Feb-20 13:33N 44°36' E 013°43'1918.9
2017-Feb-20 12:33N 44°20' E 013°58'61816.1
2017-Feb-18 22:04N 37°19' E 023°55'3018.9
2017-Feb-18 20:29N 37°43' E 024°17'  
Track history (hours):
 
Tides and Currents Weather Stations Pressure Air Temp Water Temp Dewpoint Dewpoint Depression Visibility Wind Speed Wind Dir Waves Ship Positions

Cuneyt Solakoglu

Last reported at 2017-Feb-28 14:34 UTC. Time now 2017-Feb-28 14:46 UTC.
Position N 45°33' E 013°20'.

Length 193 m; draft 6.8 m.

Type: Ship (hazmat cat A). MMSI: 271002676.

Date/timePositionNaut miles runAvg speedWind from/ knotsBaromVisibWave heightAir tempDewpointWater temp
2017-Feb-28 14:34N 45°33' E 013°20'1717.4
2017-Feb-28 13:33N 45°39' E 013°44'1 0.9
2017-Feb-28 12:31N 45°39' E 013°45'0 0.0
2017-Feb-28 11:28N 45°39' E 013°45'0 0.0
2017-Feb-28 10:33N 45°39' E 013°45'0 0.0
2017-Feb-28 09:33N 45°39' E 013°45'0 0.0
2017-Feb-28 08:32N 45°39' E 013°45'0 0.0
2017-Feb-28 07:32N 45°39' E 013°45'0 0.0
2017-Feb-28 06:32N 45°39' E 013°45'0 0.0
2017-Feb-28 05:31N 45°39' E 013°45'0 0.0
2017-Feb-28 04:31N 45°39' E 013°45'0 0.0
2017-Feb-28 03:33N 45°39' E 013°45'0 0.0
2017-Feb-28 02:33N 45°39' E 013°45'0 0.0
2017-Feb-28 01:32N 45°39' E 013°45'0 0.0
2017-Feb-28 00:32N 45°39' E 013°45'0 0.0
2017-Feb-27 23:28N 45°39' E 013°45'0 0.0
2017-Feb-27 22:28N 45°39' E 013°45'0 0.0
2017-Feb-27 21:28N 45°39' E 013°45'0 0.0
2017-Feb-27 20:33N 45°39' E 013°45'0 0.0
2017-Feb-27 19:33N 45°39' E 013°45'4 4.1
2017-Feb-27 18:34N 45°39' E 013°39'1918.8
2017-Feb-27 17:33N 45°27' E 013°18'1817.9
2017-Feb-27 16:33N 45°09' E 013°18'1919.3
2017-Feb-27 15:33N 44°51' E 013°29'2019.4
2017-Feb-27 14:33N 44°35' E 013°44'2019.3
2017-Feb-27 13:30N 44°18' E 013°59'  
2017-Feb-22 18:28N 37°07' E 023°57'1820.0
2017-Feb-22 17:34N 36°53' E 023°44'60018.1
2017-Feb-21 08:23N 43°51' E 014°20'1719.8
2017-Feb-21 07:32N 44°05' E 014°05'1919.7
2017-Feb-21 06:33N 44°21' E 013°50'2019.6
2017-Feb-21 05:34N 44°37' E 013°35'2019.5
2017-Feb-21 04:34N 44°53' E 013°21'1919.3
2017-Feb-21 03:34N 45°10' E 013°06'1717.2
2017-Feb-21 02:33N 45°27' E 013°10'1918.8
2017-Feb-21 01:33N 45°37' E 013°33'9 7.3
2017-Feb-21 00:21N 45°39' E 013°45'0 0.0
2017-Feb-20 23:33N 45°39' E 013°45'0 0.0
2017-Feb-20 22:33N 45°39' E 013°45'0 0.0
2017-Feb-20 21:32N 45°39' E 013°45'0 0.0
2017-Feb-20 20:23N 45°39' E 013°45'0 0.0
2017-Feb-20 19:31N 45°39' E 013°45'0 0.0
2017-Feb-20 18:28N 45°39' E 013°45'5 5.6
2017-Feb-20 17:33N 45°38' E 013°38'1818.4
2017-Feb-20 16:33N 45°26' E 013°18'1717.5
2017-Feb-20 15:33N 45°09' E 013°18'1918.8
2017-Feb-20 14:33N 44°52' E 013°29'1918.8
2017-Feb-20 13:33N 44°36' E 013°43'1918.9
2017-Feb-20 12:33N 44°20' E 013°58'61816.1
2017-Feb-18 22:04N 37°19' E 023°55'3018.9
2017-Feb-18 20:29N 37°43' E 024°17'  

Dump ship's entire track history